createdAt,value
2019-02-25T00:01:52.124Z,103383.48
2019-02-25T00:04:22.154Z,103389.53
2019-02-25T00:06:52.259Z,103389.92
2019-02-25T00:09:22.292Z,103392.91
2019-02-25T00:11:52.406Z,103396.45
2019-02-25T00:14:22.668Z,103393.06
2019-02-25T00:16:52.700Z,103391.88
2019-02-25T00:19:22.758Z,103392.98
2019-02-25T00:21:52.896Z,103398.12
2019-02-25T00:24:22.929Z,103401.89
2019-02-25T00:26:52.956Z,103394.14
2019-02-25T00:29:23.044Z,103391.98
2019-02-25T00:31:53.072Z,103388.55
2019-02-25T00:34:23.313Z,103397.75
2019-02-25T00:36:53.319Z,103399.63
2019-02-25T00:39:23.369Z,103402.30
2019-02-25T00:41:53.403Z,103406.61
2019-02-25T00:44:23.459Z,103404.84
2019-02-25T00:46:53.454Z,103409.93
2019-02-25T00:49:23.503Z,103415.48
2019-02-25T00:51:53.509Z,103410.61
2019-02-25T00:54:23.555Z,103410.59
2019-02-25T00:56:53.559Z,103416.78
2019-02-25T00:59:23.589Z,103420.03
2019-02-25T01:01:53.647Z,103410.13
2019-02-25T01:04:23.661Z,103412.95
2019-02-25T01:06:53.647Z,103411.64
2019-02-25T01:09:23.733Z,103409.34
2019-02-25T01:11:53.712Z,103414.48
2019-02-25T01:14:24.195Z,103411.35
2019-02-25T01:16:54.687Z,103415.11
2019-02-25T01:19:25.203Z,103419.25
2019-02-25T01:21:56.159Z,103411.33
2019-02-25T01:24:26.181Z,103409.70
2019-02-25T01:26:56.179Z,103412.38
2019-02-25T01:29:26.191Z,103424.20
2019-02-25T01:31:56.189Z,103410.89
2019-02-25T01:34:26.211Z,103406.80
2019-02-25T01:36:56.215Z,103404.28
2019-02-25T01:39:26.235Z,103407.46
2019-02-25T01:41:56.262Z,103408.55
2019-02-25T01:44:26.264Z,103405.03
2019-02-25T01:46:56.391Z,103409.79
2019-02-25T01:49:26.415Z,103405.66
2019-02-25T01:51:56.440Z,103409.54
2019-02-25T01:54:26.459Z,103405.61
2019-02-25T01:56:56.485Z,103406.89
2019-02-25T01:59:26.493Z,103409.70
2019-02-25T02:01:56.527Z,103412.23
2019-02-25T02:04:26.578Z,103408.10
2019-02-25T02:06:56.611Z,103404.74
2019-02-25T02:09:26.639Z,103400.80
2019-02-25T02:11:56.647Z,103400.18
2019-02-25T02:14:26.661Z,103389.78
2019-02-25T02:16:56.715Z,103382.33
2019-02-25T02:19:26.760Z,103374.03
2019-02-25T02:21:56.838Z,103379.16
2019-02-25T02:24:26.923Z,103379.84
2019-02-25T02:26:56.959Z,103375.89
2019-02-25T02:29:26.960Z,103377.07
2019-02-25T02:31:57.039Z,103376.03
2019-02-25T02:34:26.993Z,103379.61
2019-02-25T02:36:57.017Z,103372.38
2019-02-25T02:39:27.022Z,103370.61
2019-02-25T02:42:21.614Z,103372.06
2019-02-25T02:44:54.470Z,103377.72
2019-02-25T02:47:42.939Z,103380.52
2019-02-25T02:50:16.249Z,103371.22
2019-02-25T02:52:46.280Z,103365.07
2019-02-25T02:55:16.257Z,103362.77
2019-02-25T02:57:46.302Z,103359.00
2019-02-25T03:00:17.714Z,103352.75
2019-02-25T03:02:47.744Z,103351.19
2019-02-25T03:05:18.441Z,103351.42
2019-02-25T03:07:48.462Z,103364.34
2019-02-25T03:10:19.200Z,103368.55
2019-02-25T03:12:49.317Z,103363.88
2019-02-25T03:15:20.806Z,103360.80
2019-02-25T03:17:50.840Z,103357.16
2019-02-25T03:20:20.857Z,103367.14
2019-02-25T03:22:50.880Z,103370.05
2019-02-25T03:25:21.002Z,103368.25
2019-02-25T03:27:51.037Z,103367.08
2019-02-25T03:30:21.489Z,103364.12
2019-02-25T03:32:51.549Z,103373.53
2019-02-25T03:35:21.637Z,103376.06
2019-02-25T03:37:51.805Z,103375.94
2019-02-25T03:40:21.849Z,103380.75
2019-02-25T03:42:52.105Z,103372.50
2019-02-25T03:45:22.156Z,103373.73
2019-02-25T03:47:52.165Z,103380.99
2019-02-25T03:50:22.193Z,103379.66
2019-02-25T03:52:52.284Z,103376.80
2019-02-25T03:55:22.369Z,103377.37
2019-02-25T03:57:52.364Z,103381.11
2019-02-25T04:00:23.077Z,103375.44
2019-02-25T04:02:53.121Z,103386.91
2019-02-25T04:05:23.171Z,103388.58
2019-02-25T04:07:53.198Z,103392.10
2019-02-25T04:10:23.234Z,103388.84
2019-02-25T04:12:53.248Z,103382.95
2019-02-25T04:15:25.973Z,103389.30
2019-02-25T04:17:55.956Z,103398.59
2019-02-25T04:20:25.980Z,103397.74
2019-02-25T04:22:55.980Z,103396.78
2019-02-25T04:25:26.019Z,103394.99
2019-02-25T04:27:56.057Z,103392.08
2019-02-25T04:30:26.089Z,103388.59
2019-02-25T04:32:56.109Z,103388.34
2019-02-25T04:35:26.120Z,103390.28
2019-02-25T04:37:56.108Z,103388.72
2019-02-25T04:40:26.126Z,103391.24
2019-02-25T04:42:56.129Z,103385.23
2019-02-25T04:45:26.164Z,103386.63
2019-02-25T04:47:56.229Z,103388.21
2019-02-25T04:50:26.334Z,103383.76
2019-02-25T04:52:56.382Z,103389.08
2019-02-25T04:55:26.398Z,103387.41
2019-02-25T04:57:56.454Z,103377.25
2019-02-25T05:00:26.450Z,103388.34
2019-02-25T05:02:56.460Z,103379.78
2019-02-25T05:05:26.486Z,103381.67
2019-02-25T05:07:56.596Z,103377.86
2019-02-25T05:10:26.578Z,103379.30
2019-02-25T05:13:02.450Z,103371.47
2019-02-25T05:15:33.351Z,103375.56
2019-02-25T05:18:03.366Z,103375.80
2019-02-25T05:20:33.446Z,103372.09
2019-02-25T05:23:03.470Z,103372.67
2019-02-25T05:25:33.549Z,103371.08
2019-02-25T05:28:03.604Z,103376.77
2019-02-25T05:30:33.607Z,103376.25
2019-02-25T05:33:03.671Z,103381.28
2019-02-25T05:35:33.684Z,103378.59
2019-02-25T05:38:15.583Z,103374.33
2019-02-25T05:40:45.579Z,103379.37
2019-02-25T05:43:23.223Z,103378.34
2019-02-25T05:45:53.216Z,103375.52
2019-02-25T05:48:23.249Z,103374.30
2019-02-25T05:50:53.246Z,103382.31
2019-02-25T05:53:23.259Z,103393.22
2019-02-25T05:55:53.300Z,103401.67
2019-02-25T05:58:23.313Z,103406.00
2019-02-25T06:00:53.318Z,103397.20
2019-02-25T06:03:23.321Z,103398.36
2019-02-25T06:05:53.416Z,103402.42
2019-02-25T06:08:23.437Z,103404.56
2019-02-25T06:10:53.534Z,103412.76
2019-02-25T06:13:23.495Z,103424.82
2019-02-25T06:15:53.589Z,103421.38
2019-02-25T06:18:23.573Z,103427.20
2019-02-25T06:20:53.611Z,103431.27
2019-02-25T06:23:23.605Z,103431.97
2019-02-25T06:25:53.696Z,103431.03
2019-02-25T06:28:30.701Z,103426.63
2019-02-25T06:31:00.725Z,103429.33
2019-02-25T06:33:31.149Z,103438.42
2019-02-25T06:36:01.121Z,103442.21
2019-02-25T06:38:31.201Z,103444.44
2019-02-25T06:41:02.758Z,103449.33
2019-02-25T06:43:32.765Z,103445.55
2019-02-25T06:46:06.367Z,103455.28
2019-02-25T06:48:36.485Z,103457.03
2019-02-25T06:51:06.589Z,103452.84
2019-02-25T06:53:36.583Z,103456.53
2019-02-25T06:56:06.634Z,103459.53
2019-02-25T06:58:36.641Z,103468.98
2019-02-25T07:01:06.817Z,103468.02
2019-02-25T07:03:37.092Z,103475.19
2019-02-25T07:06:12.199Z,103470.20
2019-02-25T07:08:54.511Z,103467.80
2019-02-25T07:11:46.252Z,103469.13
2019-02-25T07:14:41.425Z,103469.56
2019-02-25T07:17:36.505Z,103471.42
2019-02-25T07:20:25.439Z,103476.42
2019-02-25T07:23:14.187Z,103477.22
2019-02-25T07:26:02.049Z,103486.09
2019-02-25T07:28:49.633Z,103490.17
2019-02-25T07:31:53.687Z,103500.16
2019-02-25T07:34:50.609Z,103490.54
2019-02-25T07:37:48.883Z,103494.27
2019-02-25T07:40:25.461Z,103494.16
2019-02-25T07:43:16.834Z,103487.53
2019-02-25T07:46:11.841Z,103491.20
2019-02-25T07:49:09.903Z,103499.52
2019-02-25T07:52:01.606Z,103496.87
2019-02-25T07:55:05.861Z,103484.55
2019-02-25T07:58:02.290Z,103495.66
2019-02-25T08:00:43.639Z,103496.95
2019-02-25T08:03:26.261Z,103501.17
2019-02-25T08:06:33.339Z,103504.48
2019-02-25T08:09:40.125Z,103504.65
2019-02-25T08:12:14.442Z,103501.00
2019-02-25T08:14:50.899Z,103505.38
2019-02-25T08:17:42.812Z,103514.20
2019-02-25T08:20:27.944Z,103519.27
2019-02-25T08:23:10.431Z,103512.28
2019-02-25T08:26:11.418Z,103515.53
2019-02-25T08:28:59.032Z,103517.34
2019-02-25T08:31:39.358Z,103515.55
2019-02-25T08:34:31.118Z,103522.46
2019-02-25T08:37:53.378Z,103519.78
2019-02-25T08:40:57.929Z,103521.97
2019-02-25T08:43:31.779Z,103524.39
2019-02-25T08:46:12.046Z,103527.52
2019-02-25T08:48:54.840Z,103530.39
2019-02-25T08:51:24.930Z,103527.38
2019-02-25T08:53:54.931Z,103520.14
2019-02-25T08:56:24.943Z,103521.09
2019-02-25T08:58:55.010Z,103523.83
2019-02-25T09:01:25.051Z,103522.47
2019-02-25T09:03:55.040Z,103519.19
2019-02-25T09:06:25.100Z,103510.98
2019-02-25T09:08:55.096Z,103510.09
2019-02-25T09:11:25.096Z,103502.71
2019-02-25T09:13:55.133Z,103494.22
2019-02-25T09:16:25.170Z,103490.64
2019-02-25T09:18:55.164Z,103486.75
2019-02-25T09:21:31.550Z,103484.55
2019-02-25T09:23:56.926Z,103484.58
2019-02-25T09:26:26.957Z,103475.27
2019-02-25T09:28:57.458Z,103467.92
2019-02-25T09:31:27.633Z,103471.56
2019-02-25T09:33:57.628Z,103471.05
2019-02-25T09:36:27.748Z,103466.70
2019-02-25T09:38:57.774Z,103451.92
2019-02-25T09:41:30.200Z,103452.77
2019-02-25T09:43:59.576Z,103449.53
2019-02-25T09:46:29.628Z,103456.89
2019-02-25T09:48:59.631Z,103450.78
2019-02-25T09:51:29.764Z,103446.48
2019-02-25T09:53:59.862Z,103441.27
2019-02-25T09:56:29.992Z,103441.75
2019-02-25T09:59:00.268Z,103440.17
2019-02-25T10:01:30.400Z,103438.34
2019-02-25T10:04:00.472Z,103432.44
2019-02-25T10:06:30.912Z,103422.81
2019-02-25T10:09:01.011Z,103427.32
2019-02-25T10:11:31.120Z,103413.27
2019-02-25T10:14:02.281Z,103407.22
2019-02-25T10:16:32.390Z,103404.58
2019-02-25T10:19:02.420Z,103405.09
2019-02-25T10:21:32.457Z,103412.00
2019-02-25T10:24:02.536Z,103414.95
2019-02-25T10:26:32.631Z,103420.80
2019-02-25T10:29:02.677Z,103407.64
2019-02-25T10:31:32.798Z,103398.00
2019-02-25T10:34:02.882Z,103393.11
2019-02-25T10:36:32.958Z,103395.13
2019-02-25T10:39:04.225Z,103392.63
2019-02-25T10:41:34.264Z,103395.45
2019-02-25T10:44:06.340Z,103401.38
2019-02-25T10:46:36.023Z,103403.14
2019-02-25T10:49:11.599Z,103401.80
2019-02-25T10:51:40.626Z,103399.05
2019-02-25T10:54:09.579Z,103400.80
2019-02-25T10:56:53.675Z,103407.65
2019-02-25T10:59:23.512Z,103401.17
2019-02-25T11:01:53.552Z,103396.92
2019-02-25T11:04:24.479Z,103406.75
2019-02-25T11:06:55.316Z,103403.73
2019-02-25T11:09:42.041Z,103401.01
2019-02-25T11:12:12.348Z,103410.84
2019-02-25T11:14:43.424Z,103402.30
2019-02-25T11:17:14.043Z,103401.12
2019-02-25T11:19:45.206Z,103397.39
2019-02-25T11:22:16.347Z,103394.08
2019-02-25T11:24:49.313Z,103387.95
2019-02-25T11:27:18.957Z,103381.83
2019-02-25T11:29:49.072Z,103375.39
2019-02-25T11:32:19.821Z,103368.01
2019-02-25T11:34:50.906Z,103362.45
2019-02-25T11:37:22.540Z,103355.64
2019-02-25T11:39:54.787Z,103355.94
2019-02-25T11:42:24.543Z,103348.14
2019-02-25T11:44:57.060Z,103335.64
2019-02-25T11:47:26.469Z,103336.48
2019-02-25T11:49:56.643Z,103336.78
2019-02-25T11:52:26.707Z,103336.79
2019-02-25T11:54:56.827Z,103327.01
2019-02-25T11:57:26.936Z,103324.59
2019-02-25T11:59:56.983Z,103323.65
2019-02-25T12:02:27.016Z,103333.80
2019-02-25T12:04:57.185Z,103329.62
2019-02-25T12:07:27.301Z,103333.30
2019-02-25T12:09:57.416Z,103334.81
2019-02-25T12:12:27.749Z,103338.78
2019-02-25T12:14:57.871Z,103344.33
2019-02-25T12:17:27.900Z,103341.03
2019-02-25T12:19:58.065Z,103339.04
2019-02-25T12:22:28.093Z,103339.88
2019-02-25T12:24:58.232Z,103339.53
2019-02-25T12:27:28.398Z,103325.61
2019-02-25T12:29:58.423Z,103320.25
2019-02-25T12:32:28.509Z,103322.11
2019-02-25T12:34:58.563Z,103317.20
2019-02-25T12:37:28.724Z,103316.55
2019-02-25T12:39:58.735Z,103308.28
2019-02-25T12:42:28.795Z,103307.69
2019-02-25T12:44:58.907Z,103302.06
2019-02-25T12:47:29.031Z,103301.08
2019-02-25T12:49:59.159Z,103293.78
2019-02-25T12:52:29.261Z,103296.44
2019-02-25T12:54:59.320Z,103286.91
2019-02-25T12:57:29.413Z,103283.81
2019-02-25T12:59:59.578Z,103276.60
2019-02-25T13:02:29.710Z,103278.91
2019-02-25T13:04:59.951Z,103275.17
2019-02-25T13:07:30.213Z,103275.18
2019-02-25T13:10:00.310Z,103278.63
2019-02-25T13:12:30.470Z,103265.47
2019-02-25T13:15:00.572Z,103247.20
2019-02-25T13:17:30.625Z,103239.75
2019-02-25T13:20:00.775Z,103238.56
2019-02-25T13:22:30.902Z,103235.20
2019-02-25T13:25:03.282Z,103233.89
2019-02-25T13:27:34.160Z,103228.95
2019-02-25T13:30:04.216Z,103223.73
2019-02-25T13:32:34.522Z,103221.77
2019-02-25T13:35:04.723Z,103221.30
2019-02-25T13:37:34.870Z,103223.80
2019-02-25T13:40:08.052Z,103228.25
2019-02-25T13:42:38.160Z,103220.81
2019-02-25T13:45:08.995Z,103221.23
2019-02-25T13:47:39.046Z,103221.78
2019-02-25T13:50:10.420Z,103217.34
2019-02-25T13:52:47.807Z,103219.16
2019-02-25T13:55:12.590Z,103218.27
2019-02-25T13:57:42.812Z,103214.55
2019-02-25T14:00:16.582Z,103208.13
2019-02-25T14:02:47.054Z,103212.47
2019-02-25T14:05:17.103Z,103213.82
2019-02-25T14:07:47.165Z,103210.16
2019-02-25T14:10:17.207Z,103204.52
2019-02-25T14:12:47.284Z,103213.63
2019-02-25T14:15:17.683Z,103210.27
2019-02-25T14:17:47.738Z,103213.89
2019-02-25T14:20:18.613Z,103219.20
2019-02-25T14:22:48.684Z,103212.82
2019-02-25T14:25:20.090Z,103209.84
2019-02-25T14:27:50.136Z,103214.67
2019-02-25T14:30:22.074Z,103215.32
2019-02-25T14:32:53.501Z,103212.45
2019-02-25T14:35:27.857Z,103209.23
2019-02-25T14:38:04.246Z,103206.98
2019-02-25T14:40:32.364Z,103199.08
2019-02-25T14:43:04.075Z,103193.94
2019-02-25T14:45:34.536Z,103195.44
2019-02-25T14:48:08.292Z,103186.67
2019-02-25T14:50:38.149Z,103192.72
2019-02-25T14:53:09.171Z,103185.96
2019-02-25T14:55:40.697Z,103194.52
2019-02-25T14:58:12.722Z,103195.68
2019-02-25T15:00:43.585Z,103190.97
2019-02-25T15:03:13.655Z,103184.34
2019-02-25T15:05:44.094Z,103174.27
2019-02-25T15:08:14.134Z,103172.34
2019-02-25T15:10:44.282Z,103168.30
2019-02-25T15:13:14.535Z,103170.31
2019-02-25T15:15:45.783Z,103171.55
2019-02-25T15:18:16.730Z,103178.73
2019-02-25T15:20:48.877Z,103178.25
2019-02-25T15:23:18.909Z,103174.73
2019-02-25T15:25:50.273Z,103174.73
2019-02-25T15:28:22.076Z,103180.25
2019-02-25T15:30:52.050Z,103177.61
2019-02-25T15:33:22.089Z,103166.02
2019-02-25T15:35:52.133Z,103169.78
2019-02-25T15:38:22.155Z,103162.41
2019-02-25T15:40:52.204Z,103160.61
2019-02-25T15:43:23.316Z,103159.08
2019-02-25T15:45:54.079Z,103158.05
2019-02-25T15:48:24.085Z,103166.48
2019-02-25T15:50:55.628Z,103164.27
2019-02-25T15:53:26.699Z,103168.39
2019-02-25T15:55:59.189Z,103171.82
2019-02-25T15:58:28.444Z,103169.55
2019-02-25T16:00:58.595Z,103173.91
2019-02-25T16:03:28.719Z,103169.97
2019-02-25T16:06:01.638Z,103174.16
2019-02-25T16:08:31.248Z,103176.49
2019-02-25T16:11:02.628Z,103171.23
2019-02-25T16:13:32.652Z,103170.58
2019-02-25T16:16:02.681Z,103172.03
2019-02-25T16:18:32.703Z,103168.44
2019-02-25T16:21:02.813Z,103177.79
2019-02-25T16:23:34.661Z,103171.52
2019-02-25T16:26:04.636Z,103178.29
2019-02-25T16:28:36.149Z,103173.80
2019-02-25T16:31:07.964Z,103173.76
2019-02-25T16:33:38.331Z,103169.04
2019-02-25T16:36:09.995Z,103163.30
2019-02-25T16:38:40.117Z,103160.69
2019-02-25T16:41:10.360Z,103160.97
2019-02-25T16:43:40.379Z,103164.05
2019-02-25T16:46:14.022Z,103159.78
2019-02-25T16:48:42.246Z,103164.94
2019-02-25T16:51:12.640Z,103168.45
2019-02-25T16:53:43.281Z,103168.17
2019-02-25T16:56:14.561Z,103166.55
2019-02-25T16:58:44.778Z,103170.28
2019-02-25T17:01:14.800Z,103176.08
2019-02-25T17:03:46.055Z,103177.92
2019-02-25T17:06:16.736Z,103169.00
2019-02-25T17:08:47.456Z,103169.36
2019-02-25T17:11:20.122Z,103174.38
2019-02-25T17:13:50.413Z,103178.80
2019-02-25T17:16:23.501Z,103180.11
2019-02-25T17:18:52.196Z,103187.31
2019-02-25T17:21:22.248Z,103193.10
2019-02-25T17:23:54.015Z,103196.48
2019-02-25T17:26:24.149Z,103193.78
2019-02-25T17:28:54.305Z,103194.00
2019-02-25T17:31:24.379Z,103190.28
2019-02-25T17:33:55.840Z,103193.48
2019-02-25T17:36:26.283Z,103190.75
2019-02-25T17:38:56.719Z,103195.27
2019-02-25T17:41:26.801Z,103196.36
2019-02-25T17:43:58.705Z,103188.64
2019-02-25T17:46:28.773Z,103187.73
2019-02-25T17:49:00.419Z,103181.84
2019-02-25T17:51:30.542Z,103185.55
2019-02-25T17:54:00.683Z,103186.25
2019-02-25T17:56:30.706Z,103190.95
2019-02-25T17:59:05.032Z,103191.20
2019-02-25T18:01:34.931Z,103193.62
2019-02-25T18:04:06.652Z,103184.08
2019-02-25T18:06:38.845Z,103176.91
2019-02-25T18:09:09.733Z,103179.81
2019-02-25T18:11:41.237Z,103180.05
2019-02-25T18:14:13.380Z,103175.30
2019-02-25T18:16:46.123Z,103185.72
2019-02-25T18:19:15.772Z,103188.42
2019-02-25T18:21:47.101Z,103189.93
2019-02-25T18:24:17.186Z,103191.59
2019-02-25T18:26:47.504Z,103177.04
2019-02-25T18:29:18.543Z,103171.02
2019-02-25T18:31:49.291Z,103172.02
2019-02-25T18:34:19.324Z,103173.74
2019-02-25T18:36:51.055Z,103183.45
2019-02-25T18:39:23.043Z,103173.42
2019-02-25T18:41:54.968Z,103176.43
2019-02-25T18:44:24.653Z,103169.23
2019-02-25T18:46:54.657Z,103165.90
2019-02-25T18:49:26.588Z,103168.73
2019-02-25T18:51:56.447Z,103171.26
2019-02-25T18:54:26.502Z,103180.48
2019-02-25T18:56:57.010Z,103187.51
2019-02-25T18:59:27.617Z,103192.21
2019-02-25T19:01:57.657Z,103188.52
2019-02-25T19:04:28.159Z,103186.35
2019-02-25T19:06:59.845Z,103185.51
2019-02-25T19:09:30.218Z,103179.47
2019-02-25T19:12:00.322Z,103177.81
2019-02-25T19:14:31.122Z,103180.83
2019-02-25T19:17:04.806Z,103196.58
2019-02-25T19:19:36.720Z,103204.25
2019-02-25T19:22:08.248Z,103208.12
2019-02-25T19:24:41.650Z,103200.91
2019-02-25T19:27:10.890Z,103192.54
2019-02-25T19:29:45.076Z,103195.57
2019-02-25T19:32:14.838Z,103198.73
2019-02-25T19:34:45.110Z,103198.75
2019-02-25T19:37:15.158Z,103192.03
2019-02-25T19:39:46.804Z,103191.03
2019-02-25T19:42:19.790Z,103192.69
2019-02-25T19:44:49.201Z,103201.39
2019-02-25T19:47:19.446Z,103199.39
2019-02-25T19:49:49.478Z,103204.05
2019-02-25T19:52:19.845Z,103205.73
2019-02-25T19:54:50.664Z,103206.22
2019-02-25T19:57:21.669Z,103208.59
2019-02-25T19:59:57.805Z,103193.84
2019-02-25T20:02:29.741Z,103197.33
2019-02-25T20:04:59.769Z,103194.44
2019-02-25T20:07:31.483Z,103194.31
2019-02-25T20:10:02.350Z,103185.09
2019-02-25T20:12:35.133Z,103184.91
2019-02-25T20:15:07.133Z,103173.70
2019-02-25T20:17:36.472Z,103168.67
2019-02-25T20:20:08.148Z,103165.01
2019-02-25T20:22:40.369Z,103163.20
2019-02-25T20:25:12.445Z,103159.63
2019-02-25T20:27:42.666Z,103152.44
2019-02-25T20:30:14.417Z,103156.33
2019-02-25T20:32:44.577Z,103155.57
2019-02-25T20:35:15.828Z,103157.74
2019-02-25T20:37:52.897Z,103168.47
2019-02-25T20:40:23.524Z,103149.44
2019-02-25T20:42:54.195Z,103143.20
2019-02-25T20:45:25.508Z,103134.02
2019-02-25T20:47:57.212Z,103135.88
2019-02-25T20:50:29.376Z,103133.20
2019-02-25T20:53:03.669Z,103136.66
2019-02-25T20:55:32.093Z,103132.89
2019-02-25T20:58:03.070Z,103125.41
2019-02-25T21:00:36.923Z,103127.38
2019-02-25T21:03:05.143Z,103126.86
2019-02-25T21:05:35.168Z,103130.02
2019-02-25T21:08:05.435Z,103130.78
2019-02-25T21:10:35.809Z,103121.81
2019-02-25T21:13:05.861Z,103125.52
2019-02-25T21:15:38.231Z,103127.67
2019-02-25T21:18:07.979Z,103133.50
2019-02-25T21:20:38.051Z,103131.38
2019-02-25T21:23:10.167Z,103130.05
2019-02-25T21:25:39.858Z,103148.27
2019-02-25T21:28:11.383Z,103153.80
2019-02-25T21:30:43.709Z,103154.65
2019-02-25T21:33:15.704Z,103159.00
2019-02-25T21:35:45.380Z,103165.00
2019-02-25T21:38:15.494Z,103158.34
2019-02-25T21:40:46.669Z,103163.30
2019-02-25T21:43:18.687Z,103166.04
2019-02-25T21:45:50.453Z,103163.75
2019-02-25T21:48:23.099Z,103167.17
2019-02-25T21:50:52.718Z,103165.83
2019-02-25T21:53:22.806Z,103174.59
2019-02-25T21:55:53.509Z,103171.36
2019-02-25T21:58:25.448Z,103176.66
2019-02-25T22:00:56.265Z,103172.36
2019-02-25T22:03:26.253Z,103169.38
2019-02-25T22:05:58.786Z,103169.57
2019-02-25T22:08:29.101Z,103164.94
2019-02-25T22:11:12.025Z,103160.27
2019-02-25T22:13:31.476Z,103157.53
2019-02-25T22:16:03.539Z,103161.18
2019-02-25T22:18:34.624Z,103163.92
2019-02-25T22:21:09.170Z,103166.89
2019-02-25T22:23:37.399Z,103170.36
2019-02-25T22:26:07.435Z,103167.26
2019-02-25T22:28:39.331Z,103164.02
2019-02-25T22:31:10.918Z,103164.55
2019-02-25T22:33:40.980Z,103154.48
2019-02-25T22:36:11.116Z,103156.53
2019-02-25T22:38:41.112Z,103161.64
2019-02-25T22:41:11.354Z,103157.73
2019-02-25T22:43:43.726Z,103158.73
2019-02-25T22:46:13.439Z,103156.91
2019-02-25T22:48:45.504Z,103152.87
2019-02-25T22:51:15.854Z,103160.97
2019-02-25T22:53:46.250Z,103148.15
2019-02-25T22:56:18.323Z,103150.92
2019-02-25T22:58:49.338Z,103151.91
2019-02-25T23:01:19.452Z,103141.14
2019-02-25T23:03:52.553Z,103145.24
2019-02-25T23:06:23.633Z,103148.52
2019-02-25T23:08:55.575Z,103138.89
2019-02-25T23:11:26.224Z,103141.59
2019-02-25T23:13:56.619Z,103142.14
2019-02-25T23:16:26.926Z,103134.50
2019-02-25T23:18:56.952Z,103131.36
2019-02-25T23:21:29.349Z,103134.33
2019-02-25T23:24:01.193Z,103126.62
2019-02-25T23:26:30.555Z,103124.70
2019-02-25T23:29:02.347Z,103116.52
2019-02-25T23:31:32.322Z,103116.53
2019-02-25T23:34:02.418Z,103103.95
2019-02-25T23:36:32.809Z,103112.80
2019-02-25T23:39:03.735Z,103103.00
2019-02-25T23:41:36.273Z,103108.34
2019-02-25T23:44:07.138Z,103104.53
2019-02-25T23:46:40.029Z,103110.63
2019-02-25T23:49:10.161Z,103107.42
2019-02-25T23:51:41.648Z,103106.27
2019-02-25T23:54:14.236Z,103103.00
2019-02-25T23:56:43.941Z,103101.59
2019-02-25T23:59:17.012Z,103098.73
